Santana do Ipanema, Brazil
Current Conditions -  °F | °C
As of 10:00 AM on Sunday 21 Dec 2014 (Local Time) from SBUF Reporting Station
Few Clouds Few Clouds  
Wind Chill: 90°   Ceiling: Unl
Heat Index: 92°   Visibility: 6mi
Dew Point: 66°   Wind: 9mph
Humidity: 46%   Direction: 90°E
Pressure: 30"   Gusts: NA
Location:  9.38°S, 37.25°W
Report Text: SBUF 211300Z 09008KT 9999 FEW020 32/19 Q1016
Loading
Personal Weather Stations






























Interactive Weather Map New forecast layout! Learn more

10-Day Weather Forecast

Advertisements
Track Severe Weather on mobile